Simcoe, Canada
Current Conditions -  °F | °C
As of 9:31 AM on Tuesday 27 Jan 2015 (Local Time) from CYHM Reporting Station
Light Snow Light Snow  
Wind Chill: -3°   Ceiling: 2200
Heat Index: 10°   Visibility: 1.7mi
Dew Point:   Wind: 10mph
Humidity: 79%   Direction: 360°N
Pressure: 30.03"   Gusts: NA
Location:  42.84°N, 80.31°W
Report Text: CYHM 271431Z 36009KT 1 3/4SM -SN SCT010 BKN022 OVC060 M12/M15 A3003 RMK SN1SF3SC3SC1 SLP185
Loading
Personal Weather Stations






























Interactive Weather Map New forecast layout! Learn more

10-Day Weather Forecast

Advertisements
Track Severe Weather on mobile